Time;durP1;ratioP1;P1;durP2;ratioP2;P2;SDS_P1;SDS_P2;PMS_P1;PMS_P2;Temp;Humidity;BMP_temperature;BMP_pressure;BME280_temperature;BME280_humidity;BME280_pressure;Samples;Min_cycle;Max_cycle;Signal;HPM_P1;HPM_P2
2021/07/02 00:01:39;;;;;;;0.52;0.20;;;;;;;-142.37;100.00;59669.53;5015147;28;20484;-64
2021/07/02 00:04:06;;;;;;;2.17;0.40;;;;;;;-142.37;100.00;59669.53;5014906;28;20034;-64
2021/07/02 00:06:37;;;;;;;0.47;0.10;;;;;;;-142.37;100.00;59669.53;5014823;28;20026;-64
2021/07/02 00:09:03;;;;;;;0.30;0.20;;;;;;;-142.37;100.00;59669.53;5013526;28;20018;-65
2021/07/02 00:11:30;;;;;;;0.98;0.40;;;;;;;-142.37;100.00;59669.53;5015244;28;20033;-64
2021/07/02 00:13:56;;;;;;;0.65;0.25;;;;;;;-142.37;100.00;59669.53;5014834;28;20043;-64
2021/07/02 00:16:21;;;;;;;0.50;0.20;;;;;;;-142.37;100.00;59669.53;5013526;28;20029;-65
2021/07/02 00:18:48;;;;;;;0.65;0.30;;;;;;;-142.37;100.00;59669.53;5014840;28;20026;-65
2021/07/02 00:21:15;;;;;;;0.85;0.50;;;;;;;-142.37;100.00;59669.53;5013945;28;20022;-65
2021/07/02 00:23:40;;;;;;;1.00;0.30;;;;;;;-142.37;100.00;59669.53;5014879;28;20049;-64
2021/07/02 00:26:06;;;;;;;1.05;0.30;;;;;;;-142.37;100.00;59669.53;5014692;28;20068;-64
2021/07/02 00:28:32;;;;;;;1.05;0.43;;;;;;;-142.37;100.00;59669.53;5014703;28;20028;-65
2021/07/02 00:30:58;;;;;;;0.50;0.28;;;;;;;-142.37;100.00;59669.53;5014288;28;20026;-65
2021/07/02 00:33:24;;;;;;;1.05;0.50;;;;;;;-142.37;100.00;59669.53;5014584;28;20397;-65
2021/07/02 00:35:51;;;;;;;1.30;0.40;;;;;;;-142.37;100.00;59669.53;5014725;28;20025;-65
2021/07/02 00:38:16;;;;;;;2.88;0.60;;;;;;;-142.37;100.00;59669.53;5014555;28;20473;-65
2021/07/02 00:40:41;;;;;;;2.90;0.50;;;;;;;-142.37;100.00;59669.53;5014951;28;20029;-64
2021/07/02 00:43:08;;;;;;;0.30;0.20;;;;;;;-142.37;100.00;59669.53;5014528;28;20021;-64
2021/07/02 00:45:33;;;;;;;0.80;0.40;;;;;;;-142.37;100.00;59669.53;5014585;28;20029;-65
2021/07/02 00:48:06;;;;;;;0.45;0.20;;;;;;;-142.37;100.00;59669.53;5014374;28;20080;-64
2021/07/02 00:50:33;;;;;;;0.45;0.30;;;;;;;-142.37;100.00;59669.53;5013474;28;20372;-65
2021/07/02 00:53:00;;;;;;;0.68;0.40;;;;;;;-142.37;100.00;59669.53;5014117;28;20376;-65
2021/07/02 00:55:27;;;;;;;1.02;0.17;;;;;;;-142.37;100.00;59669.53;5014156;28;20492;-65
2021/07/02 00:57:54;;;;;;;0.82;0.25;;;;;;;-142.37;100.00;59669.53;5013860;28;20054;-64
2021/07/02 01:00:19;;;;;;;1.25;0.47;;;;;;;-142.37;100.00;59669.53;5013572;28;20113;-65
2021/07/02 01:02:44;;;;;;;0.90;0.35;;;;;;;-142.37;100.00;59669.53;5014205;28;20109;-65
2021/07/02 01:05:10;;;;;;;3.42;0.57;;;;;;;-142.37;100.00;59669.53;5013289;28;20053;-65
2021/07/02 01:07:46;;;;;;;2.30;0.40;;;;;;;-142.37;100.00;59669.53;5013053;28;20022;-65
2021/07/02 01:10:16;;;;;;;3.30;0.35;;;;;;;-142.37;100.00;59669.53;5012841;28;20052;-65
2021/07/02 01:12:43;;;;;;;1.05;0.40;;;;;;;-142.37;100.00;59669.53;5014273;28;20097;-66
2021/07/02 01:15:23;;;;;;;0.52;0.20;;;;;;;-142.37;100.00;59669.53;5013951;28;20362;-65
2021/07/02 01:17:49;;;;;;;1.17;0.40;;;;;;;-142.37;100.00;59669.53;5013226;28;20161;-65
2021/07/02 01:20:14;;;;;;;0.52;0.30;;;;;;;-142.37;100.00;59669.53;5014054;28;20359;-65
2021/07/02 01:22:41;;;;;;;1.27;0.60;;;;;;;-142.37;100.00;59669.53;5014060;28;20025;-65
2021/07/02 01:25:06;;;;;;;1.02;0.40;;;;;;;-142.37;100.00;59669.53;5013883;28;20354;-65
2021/07/02 01:27:34;;;;;;;1.20;0.50;;;;;;;-142.37;100.00;59669.53;5014163;28;20033;-66
2021/07/02 01:30:00;;;;;;;1.95;0.22;;;;;;;-142.37;100.00;59669.53;5012611;28;20029;-65
2021/07/02 01:32:26;;;;;;;0.98;0.30;;;;;;;-142.37;100.00;59669.53;5016789;28;20030;-65
2021/07/02 01:34:53;;;;;;;0.45;0.20;;;;;;;-142.37;100.00;59669.53;5018151;28;20030;-65
2021/07/02 01:37:19;;;;;;;0.98;0.40;;;;;;;-142.37;100.00;59669.53;5017916;28;20033;-65
2021/07/02 01:39:44;;;;;;;0.60;0.13;;;;;;;-142.37;100.00;59669.53;5017701;28;20359;-65
2021/07/02 01:42:10;;;;;;;2.90;0.68;;;;;;;-142.37;100.00;59669.53;5017873;28;20038;-65
2021/07/02 01:44:39;;;;;;;0.57;0.38;;;;;;;-142.37;100.00;59669.53;5017740;28;20049;-65
2021/07/02 01:47:05;;;;;;;1.48;0.50;;;;;;;-142.37;100.00;59669.53;5017911;28;20380;-65
2021/07/02 01:49:32;;;;;;;1.27;0.30;;;;;;;-142.37;100.00;59669.53;5017523;28;20030;-65
2021/07/02 01:52:10;;;;;;;0.55;0.30;;;;;;;-142.37;100.00;59669.53;5017592;28;20030;-65
2021/07/02 01:54:37;;;;;;;1.73;0.63;;;;;;;-142.37;100.00;59669.53;5016612;28;20029;-65
2021/07/02 01:57:20;;;;;;;0.75;0.30;;;;;;;-142.37;100.00;59669.53;5017517;28;20025;-65
2021/07/02 01:59:45;;;;;;;1.55;0.47;;;;;;;-142.37;100.00;59669.53;5014203;28;20042;-65
2021/07/02 02:02:11;;;;;;;1.02;0.40;;;;;;;-142.37;100.00;59669.53;4997613;28;20414;-65
2021/07/02 02:04:38;;;;;;;0.40;0.30;;;;;;;-142.37;100.00;59669.53;4997766;28;20053;-65
2021/07/02 02:07:03;;;;;;;0.35;0.30;;;;;;;-142.37;100.00;59669.53;4997700;28;20025;-65
2021/07/02 02:09:30;;;;;;;1.58;0.60;;;;;;;-142.37;100.00;59669.53;4997789;28;20358;-65
2021/07/02 02:11:57;;;;;;;0.65;0.28;;;;;;;-142.37;100.00;59669.53;4997628;28;20026;-65
2021/07/02 02:14:22;;;;;;;1.40;0.20;;;;;;;-142.37;100.00;59669.53;4996741;28;20041;-65
2021/07/02 02:16:48;;;;;;;1.05;0.40;;;;;;;-142.37;100.00;59669.53;4997440;28;20466;-65
2021/07/02 02:19:13;;;;;;;0.10;0.10;;;;;;;-142.37;100.00;59669.53;4997382;28;20034;-65
2021/07/02 02:21:38;;;;;;;1.55;0.30;;;;;;;-142.37;100.00;59669.53;5006889;28;20030;-65
2021/07/02 02:24:04;;;;;;;1.55;0.47;;;;;;;-142.37;100.00;59669.53;5015354;28;20133;-65
2021/07/02 02:26:31;;;;;;;0.38;0.38;;;;;;;-142.37;100.00;59669.53;5016860;28;20029;-65
2021/07/02 02:28:57;;;;;;;2.33;0.45;;;;;;;-142.37;100.00;59669.53;5016998;28;20026;-64
2021/07/02 02:31:24;;;;;;;1.05;0.50;;;;;;;-142.37;100.00;59669.53;5016854;28;20431;-65
2021/07/02 02:33:50;;;;;;;2.63;0.55;;;;;;;-142.37;100.00;59669.53;5016887;28;20026;-65
2021/07/02 02:36:17;;;;;;;0.47;0.30;;;;;;;-142.37;100.00;59669.53;5016590;28;20081;-65
2021/07/02 02:38:43;;;;;;;0.82;0.25;;;;;;;-142.37;100.00;59669.53;5016599;28;20487;-66
2021/07/02 02:41:09;;;;;;;1.70;0.57;;;;;;;-142.37;100.00;59669.53;5016448;28;20057;-65
2021/07/02 02:43:35;;;;;;;0.80;0.40;;;;;;;-142.37;100.00;59669.53;5015744;28;20069;-65
2021/07/02 02:46:02;;;;;;;0.22;0.22;;;;;;;-142.37;100.00;59669.53;5016315;28;20159;-65
2021/07/02 02:48:29;;;;;;;3.20;0.70;;;;;;;-142.37;100.00;59669.53;5016338;28;20025;-65
2021/07/02 02:50:55;;;;;;;0.30;0.30;;;;;;;-142.37;100.00;59669.53;5015165;28;20018;-65
2021/07/02 02:53:21;;;;;;;0.20;0.10;;;;;;;-142.37;100.00;59669.53;5016474;28;20026;-65
2021/07/02 02:55:47;;;;;;;0.93;0.30;;;;;;;-142.37;100.00;59669.53;5016226;28;20029;-65
2021/07/02 02:58:12;;;;;;;0.60;0.30;;;;;;;-142.37;100.00;59669.53;5016144;28;20397;-65
2021/07/02 03:00:38;;;;;;;0.98;0.32;;;;;;;-142.37;100.00;59669.53;5016135;28;20030;-65
2021/07/02 03:03:04;;;;;;;0.50;0.20;;;;;;;-142.37;100.00;59669.53;5016200;28;20031;-65
2021/07/02 03:05:30;;;;;;;0.55;0.20;;;;;;;-142.37;100.00;59669.53;5016215;28;20025;-66
2021/07/02 03:07:58;;;;;;;0.45;0.30;;;;;;;-142.37;100.00;59669.53;5016126;28;20029;-65
2021/07/02 03:10:24;;;;;;;1.30;0.30;;;;;;;-142.37;100.00;59669.53;5016174;28;20022;-65
2021/07/02 03:12:51;;;;;;;2.42;0.30;;;;;;;-142.37;100.00;59669.53;5016119;28;20377;-64
2021/07/02 03:15:17;;;;;;;1.00;0.40;;;;;;;-142.37;100.00;59669.53;5016073;28;20461;-65
2021/07/02 03:17:43;;;;;;;0.40;0.30;;;;;;;-142.37;100.00;59669.53;5015985;28;20453;-65
2021/07/02 03:20:11;;;;;;;1.75;0.65;;;;;;;-142.37;100.00;59669.53;5015874;28;20053;-65
2021/07/02 03:22:37;;;;;;;0.60;0.40;;;;;;;-142.37;100.00;59669.53;5015920;28;20057;-65
2021/07/02 03:25:06;;;;;;;0.73;0.30;;;;;;;-142.37;100.00;59669.53;5016058;28;20381;-65
2021/07/02 03:27:32;;;;;;;1.38;0.22;;;;;;;-142.37;100.00;59669.53;5015733;28;20030;-65
2021/07/02 03:29:58;;;;;;;0.98;0.38;;;;;;;-142.37;100.00;59669.53;5015795;28;20148;-65
2021/07/02 03:32:24;;;;;;;0.68;0.40;;;;;;;-142.37;100.00;59669.53;5015706;28;20034;-65
2021/07/02 03:34:56;;;;;;;1.65;0.22;;;;;;;-142.37;100.00;59669.53;5015519;28;20030;-65
2021/07/02 03:37:22;;;;;;;1.17;0.40;;;;;;;-142.37;100.00;59669.53;5015878;28;20061;-65
2021/07/02 03:39:48;;;;;;;1.00;0.28;;;;;;;-142.37;100.00;59669.53;5015509;28;20033;-65
2021/07/02 03:42:14;;;;;;;0.65;0.32;;;;;;;-142.37;100.00;59669.53;5015719;28;20021;-65
2021/07/02 03:44:39;;;;;;;0.25;0.20;;;;;;;-142.37;100.00;59669.53;5013767;28;20057;-65
2021/07/02 03:47:06;;;;;;;0.43;0.10;;;;;;;-142.37;100.00;59669.53;5002010;28;20050;-65
2021/07/02 03:49:32;;;;;;;1.45;0.38;;;;;;;-142.37;100.00;59669.53;4995919;28;20049;-65
2021/07/02 03:51:57;;;;;;;1.10;0.30;;;;;;;-142.37;100.00;59669.53;4995735;28;20018;-65
2021/07/02 03:54:24;;;;;;;0.98;0.20;;;;;;;-142.37;100.00;59669.53;4994521;28;20026;-65
2021/07/02 03:59:34;;;;;;;0.40;0.20;;;;;;;-142.37;100.00;59669.53;5014854;28;20570;-64
2021/07/02 04:02:00;;;;;;;1.60;0.32;;;;;;;-142.37;100.00;59669.53;5015651;28;20050;-65
2021/07/02 04:04:27;;;;;;;1.42;0.50;;;;;;;-142.37;100.00;59669.53;5014990;28;20026;-65
2021/07/02 04:06:52;;;;;;;0.82;0.15;;;;;;;-142.37;100.00;59669.53;5015180;28;20564;-65
2021/07/02 04:09:18;;;;;;;1.30;0.30;;;;;;;-142.37;100.00;59669.53;5015067;28;20398;-65
2021/07/02 04:11:45;;;;;;;0.88;0.43;;;;;;;-142.37;100.00;59669.53;5014949;28;20481;-65
2021/07/02 04:14:11;;;;;;;0.35;0.10;;;;;;;-142.37;100.00;59669.53;5014831;28;20034;-66
2021/07/02 04:16:38;;;;;;;1.10;0.40;;;;;;;-142.37;100.00;59669.53;5014910;28;20380;-65
2021/07/02 04:19:06;;;;;;;2.30;0.30;;;;;;;-142.37;100.00;59669.53;5014737;28;20358;-65
2021/07/02 04:21:32;;;;;;;0.68;0.40;;;;;;;-142.37;100.00;59669.53;5014927;28;20388;-64
2021/07/02 04:23:58;;;;;;;1.30;0.38;;;;;;;-142.37;100.00;59669.53;5014788;28;20025;-65
2021/07/02 04:26:26;;;;;;;0.40;0.20;;;;;;;-142.37;100.00;59669.53;5014865;28;20457;-64
2021/07/02 04:29:00;;;;;;;0.90;0.20;;;;;;;-142.37;100.00;59669.53;5014586;28;20030;-65
2021/07/02 04:31:26;;;;;;;0.82;0.40;;;;;;;-142.37;100.00;59669.53;5014679;28;20029;-65
2021/07/02 04:33:51;;;;;;;3.03;0.68;;;;;;;-142.37;100.00;59669.53;5014517;28;20030;-65
2021/07/02 04:36:17;;;;;;;0.63;0.20;;;;;;;-142.37;100.00;59669.53;5014550;28;20025;-65
2021/07/02 04:38:43;;;;;;;0.75;0.20;;;;;;;-142.37;100.00;59669.53;5014487;28;20060;-66
2021/07/02 04:41:09;;;;;;;0.57;0.15;;;;;;;-142.37;100.00;59669.53;5014490;28;20109;-65
2021/07/02 04:43:37;;;;;;;0.50;0.22;;;;;;;-142.37;100.00;59669.53;5014591;28;20026;-64
2021/07/02 04:46:02;;;;;;;1.25;0.30;;;;;;;-142.37;100.00;59669.53;5014399;28;20054;-64
2021/07/02 04:48:28;;;;;;;0.40;0.20;;;;;;;-142.37;100.00;59669.53;5014468;28;20113;-65
2021/07/02 04:51:02;;;;;;;0.65;0.15;;;;;;;-142.37;100.00;59669.53;5014246;28;20457;-65
2021/07/02 04:53:28;;;;;;;0.30;0.15;;;;;;;-142.37;100.00;59669.53;5014425;28;20041;-65
2021/07/02 04:55:55;;;;;;;0.65;0.25;;;;;;;-142.37;100.00;59669.53;5014430;28;20048;-65
2021/07/02 04:58:21;;;;;;;0.45;0.10;;;;;;;-142.37;100.00;59669.53;5013898;28;20508;-65
2021/07/02 05:00:49;;;;;;;0.73;0.20;;;;;;;-142.37;100.00;59669.53;5014101;28;20045;-64
2021/07/02 05:03:14;;;;;;;0.93;0.20;;;;;;;-142.37;100.00;59669.53;5014210;28;20101;-64
2021/07/02 05:05:41;;;;;;;0.85;0.25;;;;;;;-142.37;100.00;59669.53;5013825;28;20149;-64
2021/07/02 05:08:08;;;;;;;0.75;0.10;;;;;;;-142.37;100.00;59669.53;5014040;28;20022;-65
2021/07/02 05:10:41;;;;;;;1.17;0.20;;;;;;;-142.37;100.00;59669.53;5014290;28;20365;-64
2021/07/02 05:13:08;;;;;;;1.48;0.20;;;;;;;-142.37;100.00;59669.53;5014193;28;20023;-64
2021/07/02 05:15:34;;;;;;;0.93;0.35;;;;;;;-142.37;100.00;59669.53;5014127;28;20029;-65
2021/07/02 05:18:01;;;;;;;3.25;0.40;;;;;;;-142.37;100.00;59669.53;5012794;28;20441;-64
2021/07/02 05:20:26;;;;;;;1.17;0.47;;;;;;;-142.37;100.00;59669.53;5012770;28;20382;-64
2021/07/02 05:22:53;;;;;;;2.20;0.65;;;;;;;-142.37;100.00;59669.53;5014034;28;20025;-64
2021/07/02 05:25:19;;;;;;;2.13;0.30;;;;;;;-142.37;100.00;59669.53;5013932;28;20133;-65
2021/07/02 05:27:53;;;;;;;0.95;0.40;;;;;;;-142.37;100.00;59669.53;5014039;28;20473;-65
2021/07/02 05:30:21;;;;;;;1.10;0.40;;;;;;;-142.37;100.00;59669.53;5013947;28;20068;-65
2021/07/02 05:32:47;;;;;;;3.63;0.68;;;;;;;-142.37;100.00;59669.53;5013780;28;20038;-65
2021/07/02 05:35:14;;;;;;;2.60;0.47;;;;;;;-142.37;100.00;59669.53;5013754;28;20645;-64
2021/07/02 05:37:43;;;;;;;0.85;0.20;;;;;;;-142.37;100.00;59669.53;5013920;28;20660;-65
2021/07/02 05:40:11;;;;;;;0.63;0.20;;;;;;;-142.37;100.00;59669.53;5013544;28;20030;-64
2021/07/02 05:42:38;;;;;;;1.15;0.40;;;;;;;-142.37;100.00;59669.53;5014082;28;20520;-65
2021/07/02 05:45:04;;;;;;;0.55;0.20;;;;;;;-142.37;100.00;59669.53;5013763;28;20037;-64
2021/07/02 05:47:51;;;;;;;0.75;0.30;;;;;;;-142.37;100.00;59669.53;5013793;28;20100;-64
2021/07/02 05:50:19;;;;;;;2.65;0.40;;;;;;;-142.37;100.00;59669.53;5013743;28;20385;-65
2021/07/02 05:52:51;;;;;;;0.60;0.30;;;;;;;-142.37;100.00;59669.53;5013867;28;20065;-65
2021/07/02 05:55:19;;;;;;;1.38;0.32;;;;;;;-142.37;100.00;59669.53;5013636;28;20048;-65
2021/07/02 05:57:44;;;;;;;0.17;0.10;;;;;;;-142.37;100.00;59669.53;5013551;28;20100;-64
2021/07/02 06:00:10;;;;;;;1.77;0.30;;;;;;;-142.37;100.00;59669.53;5013327;28;20396;-64
2021/07/02 06:02:37;;;;;;;0.88;0.20;;;;;;;-142.37;100.00;59669.53;5013452;28;20069;-64
2021/07/02 06:05:04;;;;;;;2.33;0.47;;;;;;;-142.37;100.00;59669.53;5013477;28;20029;-64
2021/07/02 06:07:50;;;;;;;0.60;0.30;;;;;;;-142.37;100.00;59669.53;5013562;28;20033;-65
2021/07/02 06:10:17;;;;;;;0.65;0.20;;;;;;;-142.37;100.00;59669.53;5013630;28;20068;-64
2021/07/02 06:12:43;;;;;;;0.93;0.30;;;;;;;-142.37;100.00;59669.53;5013675;28;20140;-65
2021/07/02 06:15:20;;;;;;;0.85;0.20;;;;;;;-142.37;100.00;59669.53;5013558;28;20057;-64
2021/07/02 06:17:54;;;;;;;0.70;0.20;;;;;;;-142.37;100.00;59669.53;5013555;28;20547;-64
2021/07/02 06:20:22;;;;;;;;;;;;;;;-142.37;100.00;59669.53;5017575;28;20028;-65
2021/07/02 06:22:49;;;;;;;0.60;0.28;;;;;;;-142.37;100.00;59669.53;5017437;28;19917;-64
2021/07/02 06:25:16;;;;;;;0.22;0.17;;;;;;;-142.37;100.00;59669.53;5016810;28;20028;-65
2021/07/02 06:27:42;;;;;;;0.82;0.30;;;;;;;-142.37;100.00;59669.53;5016838;28;20030;-64
2021/07/02 06:30:11;;;;;;;0.77;0.30;;;;;;;-142.37;100.00;59669.53;5030759;28;20028;-65
2021/07/02 06:32:36;;;;;;;0.30;0.13;;;;;;;-142.37;100.00;59669.53;5016917;28;20038;-64
2021/07/02 06:35:02;;;;;;;0.95;0.40;;;;;;;-142.37;100.00;59669.53;5016780;28;20029;-65
2021/07/02 06:37:28;;;;;;;1.20;0.30;;;;;;;-142.37;100.00;59669.53;5016758;28;20033;-65
2021/07/02 06:39:55;;;;;;;0.90;0.35;;;;;;;-142.37;100.00;59669.53;5016498;28;20500;-65
2021/07/02 06:42:21;;;;;;;1.60;0.22;;;;;;;-142.37;100.00;59669.53;5015320;28;20033;-65
2021/07/02 06:44:46;;;;;;;1.35;0.30;;;;;;;-142.37;100.00;59669.53;5016543;28;20540;-65
2021/07/02 06:47:12;;;;;;;0.47;0.22;;;;;;;-142.37;100.00;59669.53;5016481;28;20034;-65
2021/07/02 06:49:39;;;;;;;2.25;0.50;;;;;;;-142.37;100.00;59669.53;5016437;28;20481;-65
2021/07/02 06:52:07;;;;;;;1.50;0.22;;;;;;;-142.37;100.00;59669.53;5016200;28;20026;-65
2021/07/02 06:54:33;;;;;;;1.33;0.25;;;;;;;-142.37;100.00;59669.53;5016332;28;20026;-64
2021/07/02 06:57:01;;;;;;;1.17;0.25;;;;;;;-142.37;100.00;59669.53;5015839;28;20052;-65
2021/07/02 06:59:40;;;;;;;0.43;0.20;;;;;;;-142.37;100.00;59669.53;5015761;28;20489;-65
2021/07/02 07:02:10;;;;;;;1.25;0.38;;;;;;;-142.37;100.00;59669.53;5016387;28;20375;-65
2021/07/02 07:04:38;;;;;;;0.82;0.22;;;;;;;-142.37;100.00;59669.53;5014899;28;20815;-65
2021/07/02 07:07:06;;;;;;;1.20;0.30;;;;;;;-142.37;100.00;59669.53;5015908;28;20100;-64
2021/07/02 07:09:32;;;;;;;3.38;0.80;;;;;;;-142.37;100.00;59669.53;5015830;28;20033;-65
2021/07/02 07:11:59;;;;;;;1.00;0.30;;;;;;;-142.37;100.00;59669.53;5016125;28;20021;-65
2021/07/02 07:14:24;;;;;;;1.30;0.40;;;;;;;-142.37;100.00;59669.53;5015979;28;20026;-65
2021/07/02 07:17:01;;;;;;;1.10;0.20;;;;;;;-142.37;100.00;59669.53;5015865;28;20080;-65
2021/07/02 07:19:28;;;;;;;1.27;0.50;;;;;;;-142.37;100.00;59669.53;5015685;28;20061;-64
2021/07/02 07:21:54;;;;;;;1.10;0.40;;;;;;;-142.37;100.00;59669.53;5015323;28;20088;-64
2021/07/02 07:24:19;;;;;;;1.00;0.28;;;;;;;-142.37;100.00;59669.53;5015727;28;20025;-64
2021/07/02 07:26:45;;;;;;;1.45;0.80;;;;;;;-142.37;100.00;59669.53;5015730;28;20034;-65
2021/07/02 07:29:10;;;;;;;1.55;0.25;;;;;;;-142.37;100.00;59669.53;5015050;28;20104;-64
2021/07/02 07:31:36;;;;;;;3.10;0.70;;;;;;;-142.37;100.00;59669.53;5015390;28;20522;-64
2021/07/02 07:34:02;;;;;;;1.65;0.40;;;;;;;-142.37;100.00;59669.53;5014641;28;20069;-65
2021/07/02 07:36:31;;;;;;;1.40;0.47;;;;;;;-142.37;100.00;59669.53;5021732;28;20030;-64
2021/07/02 07:38:57;;;;;;;1.88;0.55;;;;;;;-142.37;100.00;59669.53;5019663;28;20037;-65
2021/07/02 07:41:24;;;;;;;1.13;0.70;;;;;;;-142.37;100.00;59669.53;5023675;28;20029;-65
2021/07/02 07:43:50;;;;;;;2.45;0.63;;;;;;;-142.37;100.00;59669.53;5033335;28;20025;-64
2021/07/02 07:46:16;;;;;;;1.10;0.47;;;;;;;-142.37;100.00;59669.53;5035068;28;20025;-64
2021/07/02 07:48:41;;;;;;;1.27;0.57;;;;;;;-142.37;100.00;59669.53;5033507;28;20026;-64
2021/07/02 07:51:16;;;;;;;0.95;0.43;;;;;;;-142.37;100.00;59669.53;5011076;28;20062;-64
2021/07/02 07:53:43;;;;;;;2.53;0.75;;;;;;;-142.37;100.00;59669.53;5014387;28;20101;-64
2021/07/02 07:56:09;;;;;;;2.42;0.45;;;;;;;-142.37;100.00;59669.53;5026407;28;20036;-64
2021/07/02 07:58:34;;;;;;;0.70;0.40;;;;;;;-142.37;100.00;59669.53;5032270;28;20049;-64
2021/07/02 08:01:00;;;;;;;1.98;0.30;;;;;;;-142.37;100.00;59669.53;5021102;28;20025;-65
2021/07/02 08:03:26;;;;;;;1.48;0.40;;;;;;;-142.37;100.00;59669.53;5020354;28;20052;-64
2021/07/02 08:05:53;;;;;;;2.67;0.60;;;;;;;-142.37;100.00;59669.53;5025002;28;20048;-65
2021/07/02 08:08:18;;;;;;;1.63;0.50;;;;;;;-142.37;100.00;59669.53;5028301;28;20178;-65
2021/07/02 08:10:44;;;;;;;1.48;0.30;;;;;;;-142.37;100.00;59669.53;5021907;28;20508;-64
2021/07/02 08:13:09;;;;;;;1.25;0.50;;;;;;;-142.37;100.00;59669.53;5022386;28;20388;-64
2021/07/02 08:15:35;;;;;;;1.70;0.50;;;;;;;-142.37;100.00;59669.53;5028536;28;20018;-64
2021/07/02 08:18:00;;;;;;;0.28;0.22;;;;;;;-142.37;100.00;59669.53;5025298;28;20021;-64
2021/07/02 08:20:26;;;;;;;2.65;0.63;;;;;;;-142.37;100.00;59669.53;5021792;28;20061;-64
2021/07/02 08:22:51;;;;;;;3.42;0.60;;;;;;;-142.37;100.00;59669.53;5023222;28;20033;-64
2021/07/02 08:25:17;;;;;;;1.48;0.40;;;;;;;-142.37;100.00;59669.53;5027409;28;20101;-63
2021/07/02 08:30:26;;;;;;;2.35;0.40;;;;;;;-142.37;100.00;59669.53;5011434;28;20045;-65
2021/07/02 08:32:53;;;;;;;1.88;0.75;;;;;;;-142.37;100.00;59669.53;5012666;28;20465;-64
2021/07/02 08:35:21;;;;;;;1.02;0.50;;;;;;;-142.37;100.00;59669.53;5010182;28;20014;-65
2021/07/02 08:37:51;;;;;;;2.00;0.68;;;;;;;-142.37;100.00;59669.53;5013652;28;20026;-64
2021/07/02 08:40:19;;;;;;;2.28;0.70;;;;;;;-142.37;100.00;59669.53;5001725;28;20161;-65
2021/07/02 08:42:45;;;;;;;2.10;0.68;;;;;;;-142.37;100.00;59669.53;5009317;28;20029;-65
2021/07/02 08:45:10;;;;;;;2.90;0.70;;;;;;;-142.37;100.00;59669.53;5014072;28;20030;-64
2021/07/02 08:47:36;;;;;;;2.75;0.82;;;;;;;-142.37;100.00;59669.53;5013980;28;20037;-64
2021/07/02 08:50:03;;;;;;;1.80;0.55;;;;;;;-142.37;100.00;59669.53;5013896;28;20029;-64
2021/07/02 08:52:31;;;;;;;1.38;0.57;;;;;;;-142.37;100.00;59669.53;5009304;28;20033;-65
2021/07/02 08:54:56;;;;;;;1.15;0.57;;;;;;;-142.37;100.00;59669.53;5009434;28;20112;-64
2021/07/02 08:57:21;;;;;;;2.17;0.60;;;;;;;-142.37;100.00;59669.53;5010117;23;20823;-64
2021/07/02 08:59:47;;;;;;;2.42;0.73;;;;;;;-142.37;100.00;59669.53;5013408;28;20022;-64
2021/07/02 09:02:30;;;;;;;1.13;0.40;;;;;;;-142.37;100.00;59669.53;5013852;28;20050;-64
2021/07/02 09:05:19;;;;;;;2.30;0.63;;;;;;;-142.37;100.00;59669.53;5013977;28;20022;-64
2021/07/02 09:07:44;;;;;;;3.25;1.20;;;;;;;-142.37;100.00;59669.53;5013910;28;20470;-64
2021/07/02 09:10:09;;;;;;;0.93;0.50;;;;;;;-142.37;100.00;59669.53;5013758;28;20036;-64
2021/07/02 09:12:35;;;;;;;2.85;0.80;;;;;;;-142.37;100.00;59669.53;5013881;28;20055;-64
2021/07/02 09:15:12;;;;;;;1.55;0.40;;;;;;;-142.37;100.00;59669.53;5013506;28;20025;-64
2021/07/02 09:17:58;;;;;;;0.68;0.30;;;;;;;-142.37;100.00;59669.53;5032119;28;20029;-65
2021/07/02 09:20:36;;;;;;;0.52;0.30;;;;;;;-142.37;100.00;59669.53;5013598;28;20041;-65
2021/07/02 09:23:12;;;;;;;1.30;0.20;;;;;;;-142.37;100.00;59669.53;5013866;28;20034;-65
2021/07/02 09:25:49;;;;;;;0.60;0.30;;;;;;;-142.37;100.00;59669.53;5014125;28;20092;-65
2021/07/02 09:28:16;;;;;;;0.85;0.40;;;;;;;-142.37;100.00;59669.53;5013560;28;20076;-65
2021/07/02 09:30:47;;;;;;;0.55;0.20;;;;;;;-142.37;100.00;59669.53;5014273;28;20049;-65
2021/07/02 09:33:22;;;;;;;0.65;0.30;;;;;;;-142.37;100.00;59669.53;5029152;28;20100;-65
2021/07/02 09:35:52;;;;;;;1.58;0.47;;;;;;;-142.37;100.00;59669.53;5033421;28;20064;-66
2021/07/02 09:38:19;;;;;;;0.25;0.13;;;;;;;-142.37;100.00;59669.53;5017212;28;20041;-64
2021/07/02 09:40:47;;;;;;;0.80;0.20;;;;;;;-142.37;100.00;59669.53;5013114;28;20018;-65
2021/07/02 09:43:19;;;;;;;0.93;0.28;;;;;;;-142.37;100.00;59669.53;5013297;28;20028;-64
2021/07/02 09:45:48;;;;;;;1.25;0.30;;;;;;;-142.37;100.00;59669.53;5013017;28;20473;-64
2021/07/02 09:48:17;;;;;;;0.52;0.20;;;;;;;-142.37;100.00;59669.53;5012204;28;20041;-64
2021/07/02 09:50:42;;;;;;;0.68;0.10;;;;;;;-142.37;100.00;59669.53;5013321;28;20140;-64
2021/07/02 09:53:11;;;;;;;3.23;0.80;;;;;;;-142.37;100.00;59669.53;5015270;28;20101;-65
2021/07/02 09:55:44;;;;;;;0.70;0.30;;;;;;;-142.37;100.00;59669.53;5016959;28;20350;-65
2021/07/02 09:58:14;;;;;;;1.73;0.52;;;;;;;-142.37;100.00;59669.53;5016263;28;20053;-64
2021/07/02 10:00:57;;;;;;;0.75;0.50;;;;;;;-142.37;100.00;59669.53;5016697;28;20075;-64
2021/07/02 10:03:31;;;;;;;0.93;0.30;;;;;;;-142.37;100.00;59669.53;5016178;28;20022;-65
2021/07/02 10:05:58;;;;;;;1.33;0.40;;;;;;;-142.37;100.00;59669.53;5016282;28;20073;-65
2021/07/02 10:08:32;;;;;;;1.23;0.30;;;;;;;-142.37;100.00;59669.53;5016097;28;20034;-64
2021/07/02 10:10:59;;;;;;;1.63;0.40;;;;;;;-142.37;100.00;59669.53;5016560;28;20029;-65
2021/07/02 10:13:27;;;;;;;2.67;0.60;;;;;;;-142.37;100.00;59669.53;5015620;28;20367;-64
2021/07/02 10:15:56;;;;;;;1.05;0.40;;;;;;;-142.37;100.00;59669.53;5016777;28;20033;-64
2021/07/02 10:18:25;;;;;;;1.52;0.70;;;;;;;-142.37;100.00;59669.53;5016537;28;20033;-64
2021/07/02 10:20:53;;;;;;;0.90;0.43;;;;;;;-142.37;100.00;59669.53;5016368;28;20030;-65
2021/07/02 10:23:36;;;;;;;1.48;0.45;;;;;;;-142.37;100.00;59669.53;5016218;28;20025;-64
2021/07/02 10:26:07;;;;;;;1.05;0.30;;;;;;;-142.37;100.00;59669.53;5016091;28;20050;-64
2021/07/02 10:28:35;;;;;;;2.58;0.50;;;;;;;-142.37;100.00;59669.53;5016777;28;20076;-65
2021/07/02 10:31:02;;;;;;;1.48;0.55;;;;;;;-142.37;100.00;59669.53;5016535;28;20415;-64
2021/07/02 10:33:30;;;;;;;1.65;0.40;;;;;;;-142.37;100.00;59669.53;5016544;28;20025;-64
2021/07/02 10:36:01;;;;;;;4.80;0.80;;;;;;;-142.37;100.00;59669.53;5016333;28;20022;-63
2021/07/02 10:38:57;;;;;;;1.20;0.20;;;;;;;-142.37;100.00;59669.53;5015778;28;20362;-63
2021/07/02 10:41:32;;;;;;;1.25;0.30;;;;;;;-142.37;100.00;59669.53;4954918;28;20031;-64
2021/07/02 10:44:12;;;;;;;1.88;0.60;;;;;;;-142.37;100.00;59669.53;4956060;29;20031;-64
2021/07/02 10:46:47;;;;;;;1.90;0.52;;;;;;;-142.37;100.00;59669.53;4955956;29;20490;-64
2021/07/02 10:49:13;;;;;;;3.42;0.90;;;;;;;-142.37;100.00;59669.53;4955058;28;20031;-65
2021/07/02 10:51:42;;;;;;;1.30;0.40;;;;;;;-142.37;100.00;59669.53;4955792;29;20585;-64
2021/07/02 10:54:13;;;;;;;0.70;0.40;;;;;;;-142.37;100.00;59669.53;4955751;29;20038;-65
2021/07/02 10:56:54;;;;;;;4.38;0.77;;;;;;;-142.37;100.00;59669.53;4954574;28;20264;-64
2021/07/02 10:59:20;;;;;;;1.67;0.80;;;;;;;-142.37;100.00;59669.53;4968289;28;20051;-65
2021/07/02 11:02:12;;;;;;;3.58;0.95;;;;;;;-142.37;100.00;59669.53;4974918;28;20050;-64
2021/07/02 11:04:55;;;;;;;1.42;0.50;;;;;;;-142.37;100.00;59669.53;4960397;28;20035;-64
2021/07/02 11:07:21;;;;;;;0.90;0.32;;;;;;;-142.37;100.00;59669.53;4955183;29;20454;-64
2021/07/02 11:09:53;;;;;;;2.55;0.80;;;;;;;-142.37;100.00;59669.53;4955197;29;20027;-64
2021/07/02 11:12:44;;;;;;;1.67;0.52;;;;;;;-142.37;100.00;59669.53;4954140;28;20138;-64
2021/07/02 11:15:12;;;;;;;1.98;0.38;;;;;;;-142.37;100.00;59669.53;4955377;29;20031;-64
2021/07/02 11:18:08;;;;;;;1.45;0.40;;;;;;;-142.37;100.00;59669.53;4978048;28;20057;-65
2021/07/02 11:20:34;;;;;;;1.80;0.50;;;;;;;-142.37;100.00;59669.53;5035144;28;20381;-65